createdAt,value
2023-02-03T00:00:09.920Z,99614.76
2023-02-03T00:02:44.658Z,99618.38
2023-02-03T00:05:17.725Z,99626.52
2023-02-03T00:07:50.687Z,99623.47
2023-02-03T00:10:23.235Z,99634.66
2023-02-03T00:12:57.394Z,99629.54
2023-02-03T00:15:29.318Z,99631.45
2023-02-03T00:18:01.903Z,99635.47
2023-02-03T00:20:34.339Z,99634.70
2023-02-03T00:23:08.482Z,99631.55
2023-02-03T00:25:41.584Z,99634.89
2023-02-03T00:28:14.339Z,99632.95
2023-02-03T00:30:46.858Z,99630.38
2023-02-03T00:33:19.765Z,99637.48
2023-02-03T00:35:52.558Z,99635.37
2023-02-03T00:38:26.965Z,99639.12
2023-02-03T00:40:58.804Z,99643.87
2023-02-03T00:43:31.561Z,99646.95
2023-02-03T00:46:03.936Z,99647.42
2023-02-03T00:48:37.039Z,99648.56
2023-02-03T00:51:09.616Z,99640.59
2023-02-03T00:53:42.166Z,99649.39
2023-02-03T00:56:14.452Z,99654.25
2023-02-03T00:58:47.255Z,99652.81
2023-02-03T01:01:27.886Z,99650.03
2023-02-03T01:04:00.461Z,99656.52
2023-02-03T05:10:46.572Z,99690.95
2023-02-03T05:13:19.087Z,99686.66
2023-02-03T05:15:51.782Z,99691.15
2023-02-03T05:18:24.389Z,99690.08
2023-02-03T05:20:56.872Z,99695.51
2023-02-03T05:23:29.320Z,99701.08
2023-02-03T05:26:01.813Z,99708.52
2023-02-03T05:28:35.851Z,99707.25
2023-02-03T05:31:08.404Z,99712.30
2023-02-03T05:33:42.346Z,99712.70
2023-02-03T05:36:15.386Z,99708.91
2023-02-03T05:38:48.004Z,99715.80
2023-02-03T05:41:38.297Z,99723.56
2023-02-03T05:44:10.925Z,99718.58
2023-02-03T05:46:43.411Z,99722.03
2023-02-03T05:49:16.107Z,99722.03
2023-02-03T05:51:49.152Z,99728.53
2023-02-03T05:54:21.610Z,99729.67
2023-02-03T05:56:54.058Z,99723.83
2023-02-03T05:59:26.352Z,99731.36
2023-02-03T06:01:58.982Z,99731.86
2023-02-03T06:04:31.337Z,99731.78
2023-02-03T06:07:04.817Z,99728.88
2023-02-03T06:09:37.580Z,99735.18
2023-02-03T06:12:10.751Z,99734.31
2023-02-03T06:14:44.061Z,99741.45
2023-02-03T06:17:16.441Z,99740.52
2023-02-03T06:19:49.421Z,99742.59
2023-02-03T06:22:22.650Z,99750.81
2023-02-03T06:24:55.334Z,99753.48
2023-02-03T06:27:27.899Z,99756.50
2023-02-03T06:30:01.806Z,99753.31
2023-02-03T06:32:35.060Z,99755.23
2023-02-03T06:35:07.709Z,99762.47
2023-02-03T06:37:40.382Z,99761.91
2023-02-03T06:40:29.091Z,99763.61
2023-02-03T06:43:02.102Z,99765.73
2023-02-03T06:45:34.693Z,99777.42
2023-02-03T06:48:07.984Z,99776.08
2023-02-03T06:50:40.369Z,99783.62
2023-02-03T06:53:12.871Z,99788.02
2023-02-03T06:55:45.373Z,99787.54
2023-02-03T06:58:17.725Z,99793.27
2023-02-03T07:00:51.968Z,99787.07
2023-02-03T07:03:24.721Z,99793.17
2023-02-03T07:05:57.593Z,99790.80
2023-02-03T07:08:30.298Z,99797.97
2023-02-03T07:11:02.601Z,99800.38
2023-02-03T07:13:35.532Z,99795.95
2023-02-03T07:16:09.158Z,99801.41
2023-02-03T07:18:47.276Z,99800.58
2023-02-03T07:21:43.030Z,99802.66
2023-02-03T07:24:15.400Z,99803.53
2023-02-03T07:26:47.865Z,99804.23
2023-02-03T07:29:20.580Z,99812.56
2023-02-03T07:31:53.449Z,99814.01
2023-02-03T07:34:27.073Z,99815.14
2023-02-03T07:37:00.189Z,99814.86
2023-02-03T07:39:34.058Z,99824.17
2023-02-03T07:42:07.363Z,99813.00
2023-02-03T07:44:41.584Z,99814.53
2023-02-03T07:47:14.807Z,99815.39
2023-02-03T07:49:47.167Z,99823.63
2023-02-03T07:52:21.912Z,99826.49
2023-02-03T07:54:53.783Z,99822.10
2023-02-03T07:57:26.343Z,99821.33
2023-02-03T07:59:58.930Z,99826.78
2023-02-03T08:02:31.311Z,99830.70
2023-02-03T08:05:03.899Z,99822.11
2023-02-03T08:07:36.465Z,99833.20
2023-02-03T08:10:09.673Z,99837.05
2023-02-03T08:12:45.201Z,99832.63
2023-02-03T08:15:18.179Z,99836.85
2023-02-03T08:17:53.554Z,99839.13
2023-02-03T08:20:27.071Z,99841.53
2023-02-03T08:22:59.881Z,99850.13
2023-02-03T08:25:33.113Z,99847.66
2023-02-03T08:28:07.019Z,99852.05
2023-02-03T08:30:40.555Z,99857.90
2023-02-03T08:33:13.386Z,99858.83
2023-02-03T08:35:50.342Z,99858.09
2023-02-03T08:38:23.228Z,99863.81
2023-02-03T08:40:55.777Z,99858.83
2023-02-03T08:43:28.424Z,99864.09
2023-02-03T08:46:06.607Z,99869.08
2023-02-03T08:48:40.565Z,99862.30
2023-02-03T08:51:15.156Z,99865.08
2023-02-03T08:53:47.511Z,99862.85
2023-02-03T08:56:20.404Z,99859.13
2023-02-03T08:58:54.974Z,99860.55
2023-02-03T09:01:27.038Z,99866.48
2023-02-03T09:04:01.349Z,99864.95
2023-02-03T09:06:34.231Z,99862.26
2023-02-03T09:09:07.747Z,99866.09
2023-02-03T09:11:42.463Z,99869.91
2023-02-03T09:14:14.786Z,99869.51
2023-02-03T09:16:47.949Z,99863.19
2023-02-03T09:19:20.501Z,99865.34
2023-02-03T09:21:53.114Z,99864.68
2023-02-03T09:24:25.802Z,99866.89
2023-02-03T09:26:58.382Z,99867.73
2023-02-03T09:29:30.970Z,99868.90
2023-02-03T09:32:05.026Z,99861.45
2023-02-03T09:34:37.902Z,99863.16
2023-02-03T09:37:11.010Z,99870.72
2023-02-03T09:39:43.363Z,99860.46
2023-02-03T09:42:46.610Z,99860.83
2023-02-03T09:45:28.723Z,99862.27
2023-02-03T09:48:12.595Z,99848.22
2023-02-03T09:51:24.025Z,99859.48
2023-02-03T09:54:27.966Z,99850.80
2023-02-03T09:57:01.083Z,99858.05
2023-02-03T09:59:34.720Z,99851.92
2023-02-03T10:02:20.863Z,99853.06
2023-02-03T10:05:41.553Z,99850.89
2023-02-03T13:11:16.728Z,99822.22
2023-02-03T13:13:59.345Z,99821.41
2023-02-03T13:16:37.180Z,99816.27
2023-02-03T13:19:20.011Z,99817.20
2023-02-03T13:21:53.048Z,99823.27
2023-02-03T13:24:26.233Z,99820.40
2023-02-03T13:27:24.380Z,99819.95
2023-02-03T13:30:32.901Z,99821.20
2023-02-03T13:33:19.240Z,99813.35
2023-02-03T13:35:59.108Z,99813.08
2023-02-03T13:39:09.545Z,99820.63
2023-02-03T13:41:52.458Z,99811.00
2023-02-03T13:45:05.494Z,99812.46
2023-02-03T13:47:38.067Z,99823.47
2023-02-03T13:50:27.748Z,99826.12
2023-02-03T13:53:07.879Z,99826.52
2023-02-03T13:55:43.420Z,99834.93
2023-02-03T13:58:30.453Z,99829.67
2023-02-03T14:01:06.808Z,99840.01
2023-02-03T14:03:42.796Z,99837.61
2023-02-03T14:06:44.746Z,99833.22
2023-02-03T14:09:35.402Z,99835.59
2023-02-03T14:12:35.900Z,99831.11
2023-02-03T14:15:32.376Z,99831.02
2023-02-03T14:18:24.662Z,99829.73
2023-02-03T14:20:59.362Z,99826.39
2023-02-03T14:23:36.574Z,99825.52
2023-02-03T14:26:10.678Z,99826.39
2023-02-03T14:28:47.843Z,99828.39
2023-02-03T14:31:22.762Z,99824.88
2023-02-03T14:34:10.113Z,99824.38
2023-02-03T14:36:47.065Z,99826.03
2023-02-03T14:39:41.812Z,99823.03
2023-02-03T14:42:41.290Z,99819.02
2023-02-03T14:46:08.514Z,99820.27
2023-02-03T14:49:00.670Z,99820.77
2023-02-03T14:52:09.835Z,99818.27
2023-02-03T14:55:16.757Z,99818.83
2023-02-03T14:57:53.246Z,99825.23
2023-02-03T15:00:34.739Z,99829.90
2023-02-03T15:03:16.801Z,99826.47
2023-02-03T15:05:54.940Z,99836.68
2023-02-03T15:08:46.635Z,99829.62
2023-02-03T15:11:31.126Z,99825.87
2023-02-03T15:14:27.062Z,99825.77
2023-02-03T15:17:04.300Z,99829.09
2023-02-03T15:19:38.934Z,99834.84
2023-02-03T15:22:25.230Z,99837.78
2023-02-03T15:25:04.481Z,99830.95
2023-02-03T15:27:37.182Z,99834.39
2023-02-03T15:30:39.692Z,99831.52
2023-02-03T15:33:19.950Z,99827.28
2023-02-03T15:35:56.724Z,99831.50
2023-02-03T15:38:43.853Z,99830.16
2023-02-03T15:41:23.670Z,99838.36
2023-02-03T15:44:04.525Z,99842.55
2023-02-03T15:46:44.636Z,99842.89
2023-02-03T15:49:33.617Z,99844.95
2023-02-03T15:52:13.580Z,99839.61
2023-02-03T15:54:50.770Z,99845.66
2023-02-03T15:57:32.255Z,99846.23
2023-02-03T16:00:27.501Z,99843.88
2023-02-03T16:03:01.076Z,99854.25
2023-02-03T16:05:37.550Z,99853.21
2023-02-03T16:08:37.297Z,99842.08
2023-02-03T16:11:31.425Z,99845.09
2023-02-03T16:14:09.846Z,99840.51
2023-02-03T16:16:58.949Z,99844.60
2023-02-03T16:19:42.960Z,99830.71
2023-02-03T16:22:32.377Z,99847.91
2023-02-03T16:25:25.435Z,99842.39
2023-02-03T16:28:18.626Z,99837.75
2023-02-03T16:34:37.916Z,99841.17
2023-02-03T16:37:34.205Z,99844.34
2023-02-03T16:40:25.057Z,99841.44
2023-02-03T16:43:15.182Z,99831.67
2023-02-03T16:46:13.809Z,99834.42
2023-02-03T16:49:03.861Z,99837.39
2023-02-03T16:51:42.703Z,99836.55
2023-02-03T16:54:17.506Z,99842.56
2023-02-03T16:56:51.616Z,99840.68
2023-02-03T16:59:24.232Z,99833.04
2023-02-03T17:01:57.031Z,99829.32
2023-02-03T17:04:30.435Z,99830.19
2023-02-03T17:07:04.385Z,99832.41
2023-02-03T17:09:37.021Z,99835.33
2023-02-03T17:12:10.011Z,99837.59
2023-02-03T17:14:43.085Z,99828.45
2023-02-03T17:17:15.989Z,99828.04
2023-02-03T17:19:59.934Z,99830.88
2023-02-03T17:22:34.125Z,99835.64
2023-02-03T17:25:06.405Z,99829.63
2023-02-03T17:27:39.422Z,99827.28
2023-02-03T17:30:13.112Z,99833.34
2023-02-03T17:33:03.244Z,99833.05
2023-02-03T17:35:36.443Z,99833.52
2023-02-03T17:38:10.091Z,99827.63
2023-02-03T17:54:56.466Z,99833.42
2023-02-03T17:57:30.291Z,99838.00
2023-02-03T18:00:03.898Z,99836.09
2023-02-03T18:02:54.397Z,99839.25
2023-02-03T18:05:27.043Z,99839.34
2023-02-03T18:08:03.326Z,99837.92
2023-02-03T18:10:33.789Z,99839.63
2023-02-03T18:13:06.698Z,99839.63
2023-02-03T18:15:40.010Z,99837.92
2023-02-03T18:18:13.339Z,99843.52
2023-02-03T18:20:46.066Z,99842.53
2023-02-03T18:23:20.197Z,99838.06
2023-02-03T18:25:55.840Z,99834.72
2023-02-03T18:28:28.606Z,99833.21
2023-02-03T18:31:10.282Z,99836.38
2023-02-03T18:33:44.086Z,99837.05
2023-02-03T18:36:17.294Z,99831.62
2023-02-03T18:38:50.340Z,99830.19
2023-02-03T18:41:24.928Z,99829.81
2023-02-03T18:43:57.432Z,99825.89
2023-02-03T18:46:31.664Z,99823.31
2023-02-03T18:49:17.867Z,99820.64
2023-02-03T18:51:50.344Z,99819.77
2023-02-03T18:54:23.319Z,99815.30
2023-02-03T18:56:55.678Z,99817.27
2023-02-03T18:59:28.185Z,99812.42
2023-02-03T19:02:02.388Z,99821.77
2023-02-03T19:04:35.510Z,99820.89
2023-02-03T19:07:08.987Z,99822.70
2023-02-03T19:09:42.248Z,99823.39
2023-02-03T19:12:14.728Z,99816.72
2023-02-03T19:14:47.589Z,99826.36
2023-02-03T19:17:19.929Z,99822.73
2023-02-03T19:19:52.612Z,99813.38
2023-02-03T19:22:24.893Z,99814.33
2023-02-03T19:24:57.344Z,99819.09
2023-02-03T19:27:29.762Z,99808.50
2023-02-03T19:30:02.365Z,99812.01
2023-02-03T19:32:34.991Z,99803.98
2023-02-03T19:35:07.860Z,99808.17
2023-02-03T19:37:40.994Z,99812.67
2023-02-03T19:40:13.984Z,99812.77
2023-02-03T19:42:47.880Z,99813.31
2023-02-03T19:45:20.620Z,99809.30
2023-02-03T19:47:53.063Z,99813.69
2023-02-03T19:50:25.722Z,99811.80
2023-02-03T19:52:59.812Z,99817.35
2023-02-03T19:55:32.584Z,99812.59
2023-02-03T19:58:05.326Z,99815.64
2023-02-03T20:00:37.944Z,99814.09
2023-02-03T20:03:10.600Z,99812.84
2023-02-03T20:05:43.574Z,99807.01
2023-02-03T20:08:16.856Z,99807.09
2023-02-03T20:10:49.612Z,99808.17
2023-02-03T20:13:21.988Z,99815.81
2023-02-03T20:15:54.378Z,99807.97
2023-02-03T20:18:26.777Z,99817.78
2023-02-03T20:20:59.835Z,99813.22
2023-02-03T20:23:44.642Z,99813.59
2023-02-03T20:26:16.342Z,99809.51
2023-02-03T20:28:49.538Z,99806.17
2023-02-03T20:31:22.053Z,99806.80
2023-02-03T20:33:55.202Z,99799.66
2023-02-03T20:36:29.810Z,99797.54
2023-02-03T20:39:02.752Z,99800.30
2023-02-03T20:41:35.952Z,99801.16
2023-02-03T20:44:12.715Z,99804.88
2023-02-03T20:46:45.085Z,99800.09
2023-02-03T20:49:19.684Z,99801.51
2023-02-03T20:51:51.222Z,99805.05
2023-02-03T20:54:24.925Z,99810.31
2023-02-03T20:56:57.665Z,99807.73
2023-02-03T20:59:30.477Z,99812.98
2023-02-03T21:02:04.647Z,99804.27
2023-02-03T21:04:56.235Z,99812.20
2023-02-03T21:07:31.001Z,99804.44
2023-02-03T21:10:06.950Z,99805.77
2023-02-03T21:12:39.380Z,99805.31
2023-02-03T21:15:30.785Z,99807.02
2023-02-03T21:18:03.120Z,99809.61
2023-02-03T21:20:35.979Z,99818.20
2023-02-03T21:23:12.169Z,99818.20
2023-02-03T21:25:44.688Z,99818.41
2023-02-03T21:28:27.132Z,99816.03
2023-02-03T21:33:48.288Z,99809.27
2023-02-03T21:36:24.887Z,99804.09
2023-02-03T21:39:00.492Z,99797.21
2023-02-03T21:41:35.760Z,99798.72
2023-02-03T21:44:13.364Z,99803.77
2023-02-03T21:46:46.436Z,99807.06
2023-02-03T21:49:19.301Z,99808.20
2023-02-03T21:51:52.096Z,99808.20
2023-02-03T21:54:31.222Z,99805.78
2023-02-03T21:57:04.063Z,99807.98
2023-02-03T21:59:42.836Z,99812.75
2023-02-03T22:02:50.570Z,99802.86
2023-02-03T22:05:23.040Z,99809.53
2023-02-03T22:07:55.885Z,99801.52
2023-02-03T22:10:29.332Z,99795.56
2023-02-03T22:13:03.191Z,99805.40
2023-02-03T22:15:36.873Z,99804.53
2023-02-03T22:18:09.388Z,99803.19
2023-02-03T22:20:42.326Z,99807.66
2023-02-03T22:23:15.151Z,99809.48
2023-02-03T22:25:48.714Z,99813.24
2023-02-03T22:28:21.172Z,99807.41
2023-02-03T22:30:55.002Z,99805.31
2023-02-03T22:33:27.483Z,99801.48
2023-02-03T22:36:00.302Z,99801.94
2023-02-03T22:38:34.172Z,99803.91
2023-02-03T22:41:07.795Z,99794.02
2023-02-03T22:43:40.832Z,99798.98
2023-02-03T22:46:13.445Z,99802.57
2023-02-03T22:48:45.827Z,99813.08
2023-02-03T22:51:18.369Z,99798.39
2023-02-03T22:53:50.754Z,99808.07
2023-02-03T22:56:23.781Z,99802.81
2023-02-03T22:58:56.442Z,99803.19
2023-02-03T23:01:29.055Z,99796.05
2023-02-03T23:04:01.693Z,99796.89
2023-02-03T23:06:34.129Z,99800.52
2023-02-03T23:09:06.601Z,99793.84
2023-02-03T23:11:39.064Z,99791.55
2023-02-03T23:14:13.929Z,99793.77
2023-02-03T23:16:46.848Z,99795.97
2023-02-03T23:19:20.437Z,99806.36
2023-02-03T23:21:52.857Z,99799.60
2023-02-03T23:24:25.772Z,99804.95
2023-02-03T23:26:58.058Z,99803.23
2023-02-03T23:29:32.421Z,99801.23
2023-02-03T23:32:06.414Z,99802.81
2023-02-03T23:34:56.467Z,99798.02
2023-02-03T23:37:28.901Z,99800.86
2023-02-03T23:40:01.509Z,99801.64
2023-02-03T23:42:34.421Z,99797.89
2023-02-03T23:45:09.729Z,99792.80
2023-02-03T23:47:43.800Z,99785.92
2023-02-03T23:50:19.132Z,99785.88
2023-02-03T23:52:51.672Z,99792.00
2023-02-03T23:55:24.153Z,99786.91
2023-02-03T23:57:56.628Z,99786.86
